Time;durP1;ratioP1;P1;durP2;ratioP2;P2;SDS_P1;SDS_P2;PMS_P1;PMS_P2;Temp;Humidity;BMP_temperature;BMP_pressure;BME280_temperature;BME280_humidity;BME280_pressure;Samples;Min_cycle;Max_cycle;Signal;HPM_P1;HPM_P2
2022/03/10 00:01:16;;;;;;;;;;;;;;;-2.20;100.00;99325.91;10367213;28;19925;-81
2022/03/10 00:06:16;;;;;;;;;;;;;;;-2.24;100.00;99324.75;10367924;28;19972;-81
2022/03/10 00:11:20;;;;;;;;;;;;;;;-2.35;100.00;99318.34;10392386;28;19929;-84
2022/03/10 00:16:21;;;;;;;;;;;;;;;-2.40;100.00;99322.63;10406932;28;19937;-80
2022/03/10 00:21:23;;;;;;;;;;;;;;;-2.44;100.00;99324.09;10393720;28;21366;-79
2022/03/10 00:26:24;;;;;;;;;;;;;;;-2.46;100.00;99328.75;10399735;28;19933;-79
2022/03/10 00:31:28;;;;;;;;;;;;;;;-2.44;100.00;99331.97;10412800;28;19922;-81
2022/03/10 00:36:28;;;;;;;;;;;;;;;-2.53;100.00;99331.41;10410394;28;20013;-81
2022/03/10 00:41:29;;;;;;;;;;;;;;;-2.60;100.00;99330.66;10379330;28;19925;-79
2022/03/10 00:46:35;;;;;;;;;;;;;;;-2.72;100.00;99327.91;10372701;28;19968;-80
2022/03/10 00:51:37;;;;;;;;;;;;;;;-2.70;100.00;99330.31;10375287;28;19927;-80
2022/03/10 00:56:38;;;;;;;;;;;;;;;-2.74;100.00;99334.34;10366254;28;19960;-81
2022/03/10 01:01:39;;;;;;;;;;;;;;;-2.74;100.00;99324.69;10332068;28;20304;-78
2022/03/10 01:06:40;;;;;;;;;;;;;;;-2.84;100.00;99326.13;10398442;28;20349;-84
2022/03/10 01:11:40;;;;;;;;;;;;;;;-2.83;100.00;99336.44;10396395;28;19948;-80
2022/03/10 01:16:41;;;;;;;;;;;;;;;-2.90;100.00;99335.66;10364957;28;19927;-80
2022/03/10 01:21:41;;;;;;;;;;;;;;;-3.01;100.00;99333.69;10392077;28;19956;-79
2022/03/10 01:26:47;;;;;;;;;;;;;;;-3.05;100.00;99330.66;10346649;28;20194;-82
2022/03/10 01:31:50;;;;;;;;;;;;;;;-3.10;100.00;99335.75;10400016;28;19945;-85
2022/03/10 01:36:54;;;;;;;;;;;;;;;-3.07;100.00;99339.78;10394919;28;19915;-83
2022/03/10 01:41:56;;;;;;;;;;;;;;;-3.11;100.00;99347.25;10393572;28;19913;-82
2022/03/10 01:46:56;;;;;;;;;;;;;;;-3.14;100.00;99342.41;10367034;28;19928;-79
2022/03/10 01:51:59;;;;;;;;;;;;;;;-3.27;100.00;99345.91;10369071;28;19932;-78
2022/03/10 01:57:03;;;;;;;;;;;;;;;-3.31;100.00;99341.25;10343770;28;19922;-83
2022/03/10 02:02:06;;;;;;;;;;;;;;;-3.35;100.00;99334.81;10357085;28;19968;-82
2022/03/10 02:12:32;;;;;;;;;;;;;;;-3.31;100.00;99357.00;10391111;28;19920;-81
2022/03/10 02:17:39;;;;;;;;;;;;;;;-3.38;100.00;99354.44;10331972;28;19925;-79
2022/03/10 02:22:47;;;;;;;;;;;;;;;-3.22;100.00;99364.44;10343681;28;21268;-80
2022/03/10 02:27:50;;;;;;;;;;;;;;;-3.13;100.00;99372.91;10331664;28;19923;-78
2022/03/10 02:32:52;;;;;;;;;;;;;;;-2.98;100.00;99370.03;10347362;28;19944;-79
2022/03/10 02:37:52;;;;;;;;;;;;;;;-2.98;100.00;99365.59;10383134;28;19927;-79
2022/03/10 02:42:53;;;;;;;;;;;;;;;-3.09;100.00;99375.94;10368715;28;20651;-78
2022/03/10 02:47:55;;;;;;;;;;;;;;;-3.15;100.00;99370.50;10363129;28;19929;-78
2022/03/10 02:52:56;;;;;;;;;;;;;;;-3.26;100.00;99376.41;10383702;28;19936;-80
2022/03/10 02:57:57;;;;;;;;;;;;;;;-3.34;100.00;99371.38;10372772;28;19933;-77
2022/03/10 03:02:58;;;;;;;;;;;;;;;-3.42;100.00;99386.53;10342973;28;19921;-78
2022/03/10 03:08:00;;;;;;;;;;;;;;;-3.55;100.00;99400.47;10365922;28;20600;-77
2022/03/10 03:13:00;;;;;;;;;;;;;;;-3.67;100.00;99402.09;10375588;28;19921;-79
2022/03/10 03:18:02;;;;;;;;;;;;;;;-3.74;100.00;99400.28;10364979;28;19937;-79
2022/03/10 03:23:03;;;;;;;;;;;;;;;-3.80;100.00;99395.84;10345537;28;20987;-78
2022/03/10 03:28:04;;;;;;;;;;;;;;;-3.69;100.00;99406.72;10366868;28;19972;-80
2022/03/10 03:33:05;;;;;;;;;;;;;;;-3.79;100.00;99410.56;10356192;28;19925;-81
2022/03/10 03:38:11;;;;;;;;;;;;;;;-3.86;100.00;99415.00;10390698;28;19925;-80
2022/03/10 03:43:13;;;;;;;;;;;;;;;-3.90;100.00;99416.41;10386000;28;19921;-80
2022/03/10 03:48:14;;;;;;;;;;;;;;;-3.90;100.00;99413.81;10394777;28;19925;-78
2022/03/10 03:53:14;;;;;;;;;;;;;;;-3.91;100.00;99421.88;10383526;28;19925;-81
2022/03/10 03:58:15;;;;;;;;;;;;;;;-4.00;100.00;99410.78;10383642;28;19992;-79
2022/03/10 04:03:15;;;;;;;;;;;;;;;-4.07;100.00;99423.06;10364602;28;19921;-79
2022/03/10 04:08:16;;;;;;;;;;;;;;;-4.08;100.00;99417.00;10374739;28;19940;-79
2022/03/10 04:13:16;;;;;;;;;;;;;;;-4.09;100.00;99425.88;10390998;28;20019;-81
2022/03/10 04:18:20;;;;;;;;;;;;;;;-4.21;100.00;99429.28;10371600;28;19921;-77
2022/03/10 04:23:23;;;;;;;;;;;;;;;-4.21;100.00;99427.47;10401393;28;19933;-81
2022/03/10 04:28:24;;;;;;;;;;;;;;;-4.30;100.00;99426.88;10401750;28;19955;-79
2022/03/10 04:33:24;;;;;;;;;;;;;;;-4.41;100.00;99430.03;10360702;28;19925;-80
2022/03/10 04:38:26;;;;;;;;;;;;;;;-4.42;100.00;99428.44;10402431;28;19925;-82
2022/03/10 04:43:26;;;;;;;;;;;;;;;-4.41;100.00;99422.19;10372359;28;19989;-79
2022/03/10 04:48:26;;;;;;;;;;;;;;;-4.46;100.00;99429.84;10387997;28;21213;-80
2022/03/10 04:53:27;;;;;;;;;;;;;;;-4.54;100.00;99430.00;10414845;28;19997;-81
2022/03/10 04:58:30;;;;;;;;;;;;;;;-4.44;100.00;99434.88;10391705;28;20424;-79
2022/03/10 05:03:35;;;;;;;;;;;;;;;-4.45;100.00;99435.88;10377574;28;19940;-79
2022/03/10 05:08:36;;;;;;;;;;;;;;;-4.53;100.00;99443.91;10358568;28;19925;-78
2022/03/10 05:13:36;;;;;;;;;;;;;;;-4.48;100.00;99444.13;10364425;28;20355;-78
2022/03/10 05:18:38;;;;;;;;;;;;;;;-4.49;100.00;99435.44;10365720;28;19959;-78
2022/03/10 05:23:39;;;;;;;;;;;;;;;-4.47;100.00;99435.28;10394637;28;19936;-78
2022/03/10 05:28:41;;;;;;;;;;;;;;;-4.39;100.00;99437.69;10376543;28;19927;-79
2022/03/10 05:33:41;;;;;;;;;;;;;;;-4.48;100.00;99436.25;10370557;28;19925;-79
2022/03/10 05:38:42;;;;;;;;;;;;;;;-4.59;100.00;99438.44;10378046;28;20026;-80
2022/03/10 05:43:43;;;;;;;;;;;;;;;-4.54;100.00;99447.53;10389076;28;19923;-81
2022/03/10 05:48:43;;;;;;;;;;;;;;;-4.63;100.00;99450.34;10386908;28;19928;-79
2022/03/10 05:53:44;;;;;;;;;;;;;;;-4.66;100.00;99450.72;10416759;28;19977;-79
2022/03/10 05:58:45;;;;;;;;;;;;;;;-4.50;100.00;99448.75;10403030;28;20006;-77
2022/03/10 06:03:46;;;;;;;;;;;;;;;-4.41;100.00;99442.34;10406132;28;19927;-77
2022/03/10 06:08:46;;;;;;;;;;;;;;;-4.27;100.00;99449.25;10400193;28;19936;-77
2022/03/10 06:13:47;;;;;;;;;;;;;;;-4.18;100.00;99442.81;10351180;28;19927;-78
2022/03/10 06:18:47;;;;;;;;;;;;;;;-3.93;100.00;99447.47;10342782;28;19995;-78
2022/03/10 06:23:49;;;;;;;;;;;;;;;-3.63;100.00;99435.59;10357826;28;19959;-79
2022/03/10 06:28:49;;;;;;;;;;;;;;;-3.42;100.00;99439.00;10362621;28;19953;-78
2022/03/10 06:33:51;;;;;;;;;;;;;;;-3.11;100.00;99446.22;10368700;28;19962;-77
2022/03/10 06:38:53;;;;;;;;;;;;;;;-2.79;100.00;99441.91;10372587;28;19987;-77
2022/03/10 06:43:54;;;;;;;;;;;;;;;-2.81;100.00;99439.50;10376728;28;19968;-78
2022/03/10 06:48:54;;;;;;;;;;;;;;;-1.57;100.00;99446.84;10352735;28;20012;-76
2022/03/10 06:53:54;;;;;;;;;;;;;;;-0.52;100.00;99454.72;10342767;28;20363;-78
2022/03/10 06:58:55;;;;;;;;;;;;;;;-1.28;100.00;99453.31;10363435;28;19965;-78
2022/03/10 07:03:57;;;;;;;;;;;;;;;-1.48;100.00;99455.28;10366693;28;19936;-78
2022/03/10 07:08:58;;;;;;;;;;;;;;;-1.40;100.00;99459.47;10365638;28;20394;-77
2022/03/10 07:13:58;;;;;;;;;;;;;;;-0.72;100.00;99454.94;10368373;28;19929;-77
2022/03/10 07:18:59;;;;;;;;;;;;;;;-0.17;100.00;99475.97;10332280;28;20023;-76
2022/03/10 07:23:59;;;;;;;;;;;;;;;0.31;100.00;99471.66;10325547;28;20411;-77
2022/03/10 07:29:00;;;;;;;;;;;;;;;0.42;100.00;99473.50;10341411;28;20393;-76
2022/03/10 07:34:00;;;;;;;;;;;;;;;0.78;100.00;99483.88;10344889;28;20025;-75
2022/03/10 07:39:01;;;;;;;;;;;;;;;0.49;100.00;99475.00;10335426;28;19921;-76
2022/03/10 07:44:01;;;;;;;;;;;;;;;1.12;100.00;99476.97;10364989;28;19923;-75
2022/03/10 07:49:03;;;;;;;;;;;;;;;1.49;100.00;99478.53;10322930;28;19942;-76
2022/03/10 07:54:04;;;;;;;;;;;;;;;1.46;100.00;99478.97;10333734;28;20281;-77
2022/03/10 07:59:05;;;;;;;;;;;;;;;1.55;100.00;99461.69;10329423;28;19932;-77
2022/03/10 08:04:05;;;;;;;;;;;;;;;1.95;100.00;99467.78;10338606;28;19926;-78
2022/03/10 08:09:06;;;;;;;;;;;;;;;2.44;100.00;99468.06;10336770;28;19937;-77
2022/03/10 08:14:06;;;;;;;;;;;;;;;2.35;100.00;99466.06;10315905;28;19933;-76
2022/03/10 08:19:09;;;;;;;;;;;;;;;3.03;100.00;99463.16;10304415;28;19935;-77
2022/03/10 08:24:10;;;;;;;;;;;;;;;3.21;100.00;99462.06;10313872;28;20020;-78
2022/03/10 08:29:10;;;;;;;;;;;;;;;3.40;100.00;99463.38;10324212;28;20084;-77
2022/03/10 08:34:11;;;;;;;;;;;;;;;3.80;100.00;99458.78;10313386;28;19933;-78
2022/03/10 08:39:13;;;;;;;;;;;;;;;4.13;94.28;99469.22;10318979;28;19992;-77
2022/03/10 08:44:13;;;;;;;;;;;;;;;4.06;94.38;99471.28;10333814;28;20020;-78
2022/03/10 08:49:14;;;;;;;;;;;;;;;4.45;93.16;99465.78;10323364;28;19931;-78
2022/03/10 08:54:15;;;;;;;;;;;;;;;4.48;89.27;99458.09;10328475;28;19933;-78
2022/03/10 08:59:16;;;;;;;;;;;;;;;4.82;89.05;99461.25;10306984;28;19940;-73
2022/03/10 09:04:16;;;;;;;;;;;;;;;5.03;87.65;99456.06;10305555;28;19931;-78
2022/03/10 09:09:17;;;;;;;;;;;;;;;5.30;84.89;99451.44;10326688;28;19933;-78
2022/03/10 09:14:20;;;;;;;;;;;;;;;5.75;80.22;99451.84;10320760;28;20008;-77
2022/03/10 09:19:20;;;;;;;;;;;;;;;5.79;76.49;99448.41;10306186;28;19944;-77
2022/03/10 09:24:21;;;;;;;;;;;;;;;6.04;76.36;99444.25;10343641;28;19946;-78
2022/03/10 09:29:22;;;;;;;;;;;;;;;5.96;76.71;99443.69;10321569;28;19990;-78
2022/03/10 09:34:22;;;;;;;;;;;;;;;6.21;76.55;99428.78;10329114;28;19933;-81
2022/03/10 09:39:24;;;;;;;;;;;;;;;6.48;75.63;99432.00;10311795;28;20355;-78
2022/03/10 09:44:26;;;;;;;;;;;;;;;6.84;71.30;99426.63;10306118;28;19935;-80
2022/03/10 09:49:27;;;;;;;;;;;;;;;6.99;70.35;99423.13;10327075;28;19940;-78
2022/03/10 09:55:00;;;;;;;;;;;;;;;7.36;67.55;99412.84;10308056;28;19928;-78
2022/03/10 10:00:01;;;;;;;;;;;;;;;7.54;67.57;99411.44;10338147;28;19976;-79
2022/03/10 10:05:01;;;;;;;;;;;;;;;7.68;62.77;99407.09;10305750;28;20066;-78
2022/03/10 10:10:02;;;;;;;;;;;;;;;7.93;62.73;99394.63;10343489;28;19934;-78
2022/03/10 10:15:08;;;;;;;;;;;;;;;8.18;61.57;99394.47;10326138;28;20324;-79
2022/03/10 10:20:09;;;;;;;;;;;;;;;8.59;59.83;99391.47;10315161;28;20685;-77
2022/03/10 10:25:10;;;;;;;;;;;;;;;8.59;58.50;99396.81;10288099;28;19933;-79
2022/03/10 10:30:12;;;;;;;;;;;;;;;8.76;58.07;99388.34;10338462;28;19930;-79
2022/03/10 10:35:20;;;;;;;;;;;;;;;8.66;56.77;99391.94;10318724;28;19933;-78
2022/03/10 10:40:22;;;;;;;;;;;;;;;8.95;54.85;99385.75;10306231;28;20021;-79
2022/03/10 10:45:25;;;;;;;;;;;;;;;9.60;53.17;99368.06;10320388;28;19934;-78
2022/03/10 10:50:30;;;;;;;;;;;;;;;9.99;51.04;99369.66;10305127;28;19934;-79
2022/03/10 10:55:34;;;;;;;;;;;;;;;10.74;50.17;99357.94;10339621;28;19934;-79
2022/03/10 11:00:57;;;;;;;;;;;;;;;11.13;45.59;99354.75;10316673;28;19935;-84
2022/03/10 11:06:00;;;;;;;;;;;;;;;11.55;45.10;99345.53;10328350;28;19941;-81
2022/03/10 11:11:04;;;;;;;;;;;;;;;11.56;46.93;99349.81;10335007;28;19937;-82
2022/03/10 11:16:07;;;;;;;;;;;;;;;11.97;45.68;99332.75;10317306;28;19948;-79
2022/03/10 11:21:31;;;;;;;;;;;;;;;12.49;41.40;99330.38;10333261;28;19995;-80
2022/03/10 11:26:37;;;;;;;;;;;;;;;12.86;38.21;99309.47;10333493;28;19944;-79
2022/03/10 11:31:37;;;;;;;;;;;;;;;13.22;41.59;99303.88;10336809;28;19922;-80
2022/03/10 11:36:41;;;;;;;;;;;;;;;12.70;38.02;99296.41;10326873;28;19933;-76
2022/03/10 11:41:43;;;;;;;;;;;;;;;12.92;38.02;99292.03;10326362;28;19933;-78
2022/03/10 11:46:57;;;;;;;;;;;;;;;13.68;37.45;99287.06;10350860;28;19920;-78
2022/03/10 11:51:59;;;;;;;;;;;;;;;13.87;37.01;99294.84;10336496;28;19994;-78
2022/03/10 11:57:05;;;;;;;;;;;;;;;13.35;35.25;99276.78;10311577;28;19940;-80
2022/03/10 12:02:05;;;;;;;;;;;;;;;13.72;35.77;99276.47;10315482;28;19955;-79
2022/03/10 12:07:08;;;;;;;;;;;;;;;13.77;35.23;99262.78;10316309;28;19937;-77
2022/03/10 12:12:13;;;;;;;;;;;;;;;13.79;32.29;99274.03;10360249;28;20505;-79
2022/03/10 12:17:32;;;;;;;;;;;;;;;14.11;33.49;99264.63;10328282;28;19925;-77
2022/03/10 12:22:35;;;;;;;;;;;;;;;13.85;30.97;99251.19;10354887;28;19922;-81
2022/03/10 12:27:47;;;;;;;;;;;;;;;14.22;32.94;99245.06;10356070;28;19936;-80
2022/03/10 12:32:49;;;;;;;;;;;;;;;14.28;30.99;99240.28;10349796;28;20016;-81
2022/03/10 12:37:49;;;;;;;;;;;;;;;14.87;30.25;99248.44;10372060;28;20010;-77
2022/03/10 12:42:51;;;;;;;;;;;;;;;14.77;28.12;99235.31;10367887;28;19992;-82
2022/03/10 12:48:05;;;;;;;;;;;;;;;15.34;28.73;99224.72;10404158;28;19928;-78
2022/03/10 12:53:16;;;;;;;;;;;;;;;15.10;28.07;99226.53;10389671;28;19923;-79
2022/03/10 12:58:27;;;;;;;;;;;;;;;14.79;28.17;99212.22;10439832;28;19939;-79
2022/03/10 13:03:33;;;;;;;;;;;;;;;15.42;27.90;99201.41;10373212;28;21004;-79
2022/03/10 13:08:40;;;;;;;;;;;;;;;15.48;28.35;99202.81;10403607;28;19920;-79
2022/03/10 13:13:40;;;;;;;;;;;;;;;16.05;25.50;99195.88;10432717;28;19945;-79
2022/03/10 13:18:43;;;;;;;;;;;;;;;16.31;25.57;99193.66;10390934;28;20013;-77
2022/03/10 13:23:43;;;;;;;;;;;;;;;16.62;25.30;99192.28;10370487;28;19921;-78
2022/03/10 13:28:47;;;;;;;;;;;;;;;17.37;23.85;99175.50;10357698;28;19927;-80
2022/03/10 13:33:48;;;;;;;;;;;;;;;17.51;24.14;99170.47;10352806;28;19966;-77
2022/03/10 13:38:48;;;;;;;;;;;;;;;18.11;22.66;99171.28;10366951;28;19942;-78
2022/03/10 13:43:48;;;;;;;;;;;;;;;18.26;23.77;99156.09;10384628;28;19925;-79
2022/03/10 13:48:52;;;;;;;;;;;;;;;17.44;23.09;99164.84;10374319;28;20404;-82
2022/03/10 13:54:25;;;;;;;;;;;;;;;16.30;23.71;99156.06;10388743;28;19933;-83
2022/03/10 13:59:27;;;;;;;;;;;;;;;15.34;24.09;99148.97;10356767;28;19921;-74
2022/03/10 14:04:34;;;;;;;;;;;;;;;15.44;24.33;99147.78;10377463;28;20261;-75
2022/03/10 14:09:41;;;;;;;;;;;;;;;15.19;25.03;99138.78;10378125;28;19936;-76
2022/03/10 14:14:43;;;;;;;;;;;;;;;14.76;23.36;99144.53;10356555;28;19925;-74
2022/03/10 14:19:44;;;;;;;;;;;;;;;14.70;24.20;99135.84;10299187;28;19935;-75
2022/03/10 14:24:51;;;;;;;;;;;;;;;14.63;25.47;99129.38;10356943;28;19989;-74
2022/03/10 14:29:56;;;;;;;;;;;;;;;14.10;25.08;99123.47;10350558;28;20290;-74
2022/03/10 14:34:57;;;;;;;;;;;;;;;13.51;28.17;99127.94;10345343;28;19968;-73
2022/03/10 14:39:58;;;;;;;;;;;;;;;13.02;27.18;99116.59;10334123;28;19924;-73
2022/03/10 14:44:58;;;;;;;;;;;;;;;13.14;28.82;99119.41;10356694;28;19921;-80
2022/03/10 14:49:59;;;;;;;;;;;;;;;12.75;28.83;99112.31;10357978;28;19925;-78
2022/03/10 14:54:59;;;;;;;;;;;;;;;12.33;29.62;99116.53;10364885;28;20570;-77
2022/03/10 15:00:00;;;;;;;;;;;;;;;12.42;29.13;99106.56;10375818;28;19921;-82
2022/03/10 15:05:00;;;;;;;;;;;;;;;12.12;29.56;99095.56;10362574;28;19929;-76
2022/03/10 15:10:03;;;;;;;;;;;;;;;11.91;30.54;99098.06;10378305;28;20010;-78
2022/03/10 15:15:04;;;;;;;;;;;;;;;11.93;31.13;99097.72;10357316;28;20380;-77
2022/03/10 15:20:07;;;;;;;;;;;;;;;11.84;31.99;99097.69;10339103;28;19996;-77
2022/03/10 15:25:07;;;;;;;;;;;;;;;11.62;31.80;99078.94;10317942;28;19939;-78
2022/03/10 15:30:09;;;;;;;;;;;;;;;11.52;32.58;99077.31;10330893;28;19926;-77
2022/03/10 15:35:09;;;;;;;;;;;;;;;11.42;33.94;99077.53;10341966;28;19950;-76
2022/03/10 15:40:11;;;;;;;;;;;;;;;11.42;34.09;99074.06;10324908;28;19925;-77
2022/03/10 15:45:16;;;;;;;;;;;;;;;11.33;33.90;99069.44;10374977;28;19932;-78
2022/03/10 15:50:19;;;;;;;;;;;;;;;11.42;33.76;99072.16;10356152;28;20359;-77
2022/03/10 15:55:21;;;;;;;;;;;;;;;11.31;33.62;99066.25;10356305;28;19944;-77
2022/03/10 16:00:22;;;;;;;;;;;;;;;11.10;33.88;99074.06;10343811;28;20006;-78
2022/03/10 16:05:26;;;;;;;;;;;;;;;11.04;34.15;99067.22;10366050;28;20039;-77
2022/03/10 16:10:27;;;;;;;;;;;;;;;10.95;33.02;99063.66;10332485;28;20432;-78
2022/03/10 16:15:29;;;;;;;;;;;;;;;10.86;33.26;99068.19;10335199;28;19939;-79
2022/03/10 16:20:33;;;;;;;;;;;;;;;10.66;33.44;99068.66;10346242;28;19934;-78
2022/03/10 16:25:36;;;;;;;;;;;;;;;10.52;33.29;99063.38;10354550;28;19925;-77
2022/03/10 16:30:38;;;;;;;;;;;;;;;10.37;33.60;99067.16;10332094;28;20301;-77
2022/03/10 16:35:39;;;;;;;;;;;;;;;10.34;32.62;99075.03;10310872;28;20880;-78
2022/03/10 16:40:41;;;;;;;;;;;;;;;10.12;33.47;99071.13;10354522;28;19945;-77
2022/03/10 16:45:43;;;;;;;;;;;;;;;10.08;34.32;99080.91;10373755;28;19937;-77
2022/03/10 16:50:45;;;;;;;;;;;;;;;9.95;35.20;99066.38;10394481;28;19926;-78
2022/03/10 16:55:52;;;;;;;;;;;;;;;9.64;36.05;99076.13;10375623;28;19932;-82
2022/03/10 17:00:59;;;;;;;;;;;;;;;9.48;35.93;99077.50;10369538;28;19938;-81
2022/03/10 17:06:05;;;;;;;;;;;;;;;9.18;36.90;99081.50;10366448;28;19921;-81
2022/03/10 17:11:07;;;;;;;;;;;;;;;8.94;37.79;99081.63;10376213;28;19967;-80
2022/03/10 17:16:12;;;;;;;;;;;;;;;8.79;39.63;99085.34;10395738;28;19944;-81
2022/03/10 17:21:13;;;;;;;;;;;;;;;8.55;40.15;99090.75;10410049;28;20035;-79
2022/03/10 17:26:15;;;;;;;;;;;;;;;8.34;41.26;99095.56;10399275;28;19908;-80
2022/03/10 17:31:17;;;;;;;;;;;;;;;8.24;41.70;99090.34;10380104;28;19913;-80
2022/03/10 17:36:20;;;;;;;;;;;;;;;8.14;43.39;99088.63;10387083;28;19908;-79
2022/03/10 17:41:20;;;;;;;;;;;;;;;7.94;44.05;99094.97;10341255;28;19930;-79
2022/03/10 17:46:20;;;;;;;;;;;;;;;7.56;46.34;99107.41;10384270;28;20487;-77
2022/03/10 17:51:45;;;;;;;;;;;;;;;7.53;47.61;99099.97;10365586;28;19924;-82
2022/03/10 17:56:46;;;;;;;;;;;;;;;7.38;48.80;99105.47;10339122;28;20347;-76
2022/03/10 18:01:47;;;;;;;;;;;;;;;7.34;49.38;99107.09;10401736;28;19929;-80
2022/03/10 18:06:51;;;;;;;;;;;;;;;7.27;51.08;99109.31;10371904;28;19924;-78
2022/03/10 18:11:52;;;;;;;;;;;;;;;7.17;52.86;99115.53;10345904;28;19949;-78
2022/03/10 18:16:53;;;;;;;;;;;;;;;7.15;53.49;99119.56;10380333;28;19961;-80
2022/03/10 18:21:59;;;;;;;;;;;;;;;6.80;56.21;99114.19;10366788;28;19943;-79
2022/03/10 18:27:00;;;;;;;;;;;;;;;6.69;58.46;99112.69;10367441;28;19925;-77
2022/03/10 18:32:00;;;;;;;;;;;;;;;6.49;59.80;99107.44;10358687;28;19948;-79
2022/03/10 18:37:01;;;;;;;;;;;;;;;6.31;62.76;99113.41;10354160;28;19925;-80
2022/03/10 18:42:04;;;;;;;;;;;;;;;6.15;63.50;99110.81;10385614;28;19929;-78
2022/03/10 18:47:06;;;;;;;;;;;;;;;6.03;67.27;99112.19;10358611;28;19930;-82
2022/03/10 18:52:07;;;;;;;;;;;;;;;6.05;68.81;99110.06;10342617;28;19935;-78
2022/03/10 18:57:10;;;;;;;;;;;;;;;5.98;70.22;99115.69;10350419;28;19996;-80
2022/03/10 19:02:13;;;;;;;;;;;;;;;5.77;71.99;99114.94;10384761;28;19936;-79
2022/03/10 19:07:13;;;;;;;;;;;;;;;5.70;74.55;99119.72;10374167;28;19925;-82
2022/03/10 19:12:14;;;;;;;;;;;;;;;5.69;74.50;99115.47;10412842;28;19929;-77
2022/03/10 19:17:15;;;;;;;;;;;;;;;5.68;72.04;99114.69;10344461;28;20355;-82
2022/03/10 19:22:15;;;;;;;;;;;;;;;5.82;71.59;99112.22;10382085;28;19921;-80
2022/03/10 19:27:16;;;;;;;;;;;;;;;5.70;71.60;99104.53;10383503;28;19928;-80
2022/03/10 19:32:19;;;;;;;;;;;;;;;5.71;72.11;99097.34;10383962;28;19977;-78
2022/03/10 19:37:19;;;;;;;;;;;;;;;5.78;69.43;99100.53;10357171;28;19933;-79
2022/03/10 19:42:20;;;;;;;;;;;;;;;5.62;72.03;99106.97;10374157;28;19926;-80
2022/03/10 19:47:21;;;;;;;;;;;;;;;5.55;72.61;99101.91;10358594;28;19921;-78
2022/03/10 19:52:22;;;;;;;;;;;;;;;5.39;72.48;99100.34;10357346;28;20412;-79
2022/03/10 19:57:24;;;;;;;;;;;;;;;5.29;76.91;99101.13;10341915;28;19968;-80
2022/03/10 20:02:26;;;;;;;;;;;;;;;5.52;73.81;99099.00;10358932;28;20380;-78
2022/03/10 20:07:28;;;;;;;;;;;;;;;5.30;76.89;99097.44;10392580;28;19932;-78
2022/03/10 20:12:32;;;;;;;;;;;;;;;5.35;76.55;99096.63;10404689;28;19925;-78
2022/03/10 20:17:33;;;;;;;;;;;;;;;5.06;79.95;99091.06;10400054;28;19948;-78
2022/03/10 20:22:34;;;;;;;;;;;;;;;4.96;82.17;99099.84;10400205;28;19947;-78
2022/03/10 20:27:34;;;;;;;;;;;;;;;4.96;82.33;99096.38;10415632;28;19925;-79
2022/03/10 20:32:35;;;;;;;;;;;;;;;5.01;81.69;99101.69;10402462;28;19928;-79
2022/03/10 20:37:37;;;;;;;;;;;;;;;5.05;82.93;99097.44;10435778;28;19971;-78
2022/03/10 20:42:38;;;;;;;;;;;;;;;4.89;83.61;99107.28;10383219;28;19926;-78
2022/03/10 20:47:40;;;;;;;;;;;;;;;4.81;85.05;99105.94;10372677;28;19933;-81
2022/03/10 20:52:40;;;;;;;;;;;;;;;4.73;84.36;99106.44;10395746;28;19921;-82
2022/03/10 20:57:42;;;;;;;;;;;;;;;4.64;86.08;99096.59;10393319;28;20012;-80
2022/03/10 21:02:45;;;;;;;;;;;;;;;4.67;85.02;99090.78;10385111;28;19921;-80
2022/03/10 21:07:45;;;;;;;;;;;;;;;4.67;85.55;99088.13;10372613;28;19927;-80
2022/03/10 21:12:47;;;;;;;;;;;;;;;4.48;87.49;99080.66;10365590;28;19932;-81
2022/03/10 21:17:47;;;;;;;;;;;;;;;4.33;91.00;99075.28;10365076;28;19923;-80
2022/03/10 21:22:48;;;;;;;;;;;;;;;4.34;90.36;99076.09;10389197;28;20011;-79
2022/03/10 21:27:49;;;;;;;;;;;;;;;4.16;92.29;99072.03;10391353;28;21129;-81
2022/03/10 21:32:49;;;;;;;;;;;;;;;4.11;92.90;99070.16;10387055;28;19933;-79
2022/03/10 21:37:51;;;;;;;;;;;;;;;4.13;91.57;99062.75;10383834;28;19929;-80
2022/03/10 21:42:54;;;;;;;;;;;;;;;3.95;95.22;99064.00;10373588;28;19949;-79
2022/03/10 21:47:55;;;;;;;;;;;;;;;3.87;93.55;99074.34;10358168;28;19925;-78
2022/03/10 21:52:57;;;;;;;;;;;;;;;3.67;97.16;99070.53;10364157;28;19971;-78
2022/03/10 21:58:00;;;;;;;;;;;;;;;3.65;95.18;99069.16;10370288;28;20032;-77
2022/03/10 22:03:00;;;;;;;;;;;;;;;3.41;97.42;99066.94;10387963;28;19929;-78
2022/03/10 22:08:05;;;;;;;;;;;;;;;3.33;98.58;99064.75;10385685;28;19932;-79
2022/03/10 22:13:07;;;;;;;;;;;;;;;3.34;98.17;99070.88;10358793;28;19929;-82
2022/03/10 22:18:08;;;;;;;;;;;;;;;3.45;96.76;99075.16;10355870;28;19923;-81
2022/03/10 22:23:11;;;;;;;;;;;;;;;3.17;99.38;99078.16;10410019;28;19929;-82
2022/03/10 22:28:12;;;;;;;;;;;;;;;3.05;100.00;99073.84;10422710;28;19996;-82
2022/03/10 22:33:13;;;;;;;;;;;;;;;2.92;100.00;99068.97;10416358;28;19940;-79
2022/03/10 22:38:13;;;;;;;;;;;;;;;2.81;100.00;99064.63;10406501;28;19926;-79
2022/03/10 22:43:13;;;;;;;;;;;;;;;2.76;100.00;99065.41;10420275;28;19948;-79
2022/03/10 22:48:16;;;;;;;;;;;;;;;2.83;100.00;99068.66;10399383;28;19979;-78
2022/03/10 22:58:37;;;;;;;;;;;;;;;2.56;100.00;99065.19;10411728;28;19989;-81
2022/03/10 23:03:37;;;;;;;;;;;;;;;2.35;100.00;99060.78;10402871;28;19917;-81
2022/03/10 23:08:37;;;;;;;;;;;;;;;2.37;100.00;99064.75;10424637;28;19947;-80
2022/03/10 23:13:38;;;;;;;;;;;;;;;2.15;100.00;99051.56;10369143;28;20007;-79
2022/03/10 23:18:42;;;;;;;;;;;;;;;1.96;100.00;99063.53;10411058;28;19925;-81
2022/03/10 23:23:45;;;;;;;;;;;;;;;1.96;100.00;99058.25;10380853;28;19989;-80
2022/03/10 23:28:48;;;;;;;;;;;;;;;1.86;100.00;99072.16;10356351;28;19925;-79
2022/03/10 23:33:51;;;;;;;;;;;;;;;1.65;100.00;99071.09;10395879;28;20060;-79
2022/03/10 23:38:51;;;;;;;;;;;;;;;1.60;100.00;99071.03;10390974;28;20049;-79
2022/03/10 23:43:52;;;;;;;;;;;;;;;1.42;100.00;99068.66;10335912;28;19948;-78
2022/03/10 23:48:53;;;;;;;;;;;;;;;1.35;100.00;99068.03;10367217;28;19933;-78
2022/03/10 23:53:55;;;;;;;;;;;;;;;1.27;100.00;99071.09;10388661;28;20011;-77
2022/03/10 23:58:56;;;;;;;;;;;;;;;1.09;100.00;99072.13;10382792;28;20170;-81
